sensor_id;sensor_type;location;lat;lon;timestamp;P1;durP1;ratioP1;P2;durP2;ratioP2
1400;SDS011;46518;48.842;8.926;2024-02-21T00:01:51;5.53;;;4.80;;
1400;SDS011;46518;48.842;8.926;2024-02-21T00:04:19;6.88;;;4.38;;
1400;SDS011;46518;48.842;8.926;2024-02-21T00:06:47;10.68;;;4.90;;
1400;SDS011;46518;48.842;8.926;2024-02-21T00:09:17;14.75;;;6.65;;
1400;SDS011;46518;48.842;8.926;2024-02-21T00:11:46;9.93;;;5.07;;
1400;SDS011;46518;48.842;8.926;2024-02-21T00:14:15;9.82;;;6.10;;
1400;SDS011;46518;48.842;8.926;2024-02-21T00:16:43;11.38;;;5.18;;
1400;SDS011;46518;48.842;8.926;2024-02-21T00:19:11;5.93;;;4.90;;
1400;SDS011;46518;48.842;8.926;2024-02-21T00:21:41;8.73;;;5.85;;
1400;SDS011;46518;48.842;8.926;2024-02-21T00:24:09;8.38;;;5.25;;
1400;SDS011;46518;48.842;8.926;2024-02-21T00:26:38;9.90;;;5.07;;
1400;SDS011;46518;48.842;8.926;2024-02-21T00:29:07;8.95;;;5.13;;
1400;SDS011;46518;48.842;8.926;2024-02-21T00:31:35;10.20;;;5.53;;
1400;SDS011;46518;48.842;8.926;2024-02-21T00:34:03;6.05;;;5.40;;
1400;SDS011;46518;48.842;8.926;2024-02-21T00:36:32;11.48;;;5.60;;
1400;SDS011;46518;48.842;8.926;2024-02-21T00:39:00;5.43;;;4.68;;
1400;SDS011;46518;48.842;8.926;2024-02-21T00:41:28;12.00;;;6.03;;
1400;SDS011;46518;48.842;8.926;2024-02-21T00:43:57;10.25;;;5.28;;
1400;SDS011;46518;48.842;8.926;2024-02-21T00:46:26;6.70;;;4.90;;
1400;SDS011;46518;48.842;8.926;2024-02-21T00:48:54;8.43;;;4.85;;
1400;SDS011;46518;48.842;8.926;2024-02-21T00:51:22;8.57;;;4.35;;
1400;SDS011;46518;48.842;8.926;2024-02-21T00:53:50;9.15;;;4.70;;
1400;SDS011;46518;48.842;8.926;2024-02-21T00:56:18;12.00;;;5.25;;
1400;SDS011;46518;48.842;8.926;2024-02-21T00:58:46;6.45;;;4.57;;
1400;SDS011;46518;48.842;8.926;2024-02-21T01:01:21;9.88;;;5.20;;
1400;SDS011;46518;48.842;8.926;2024-02-21T01:03:50;8.98;;;4.80;;
1400;SDS011;46518;48.842;8.926;2024-02-21T01:06:19;9.05;;;4.80;;
1400;SDS011;46518;48.842;8.926;2024-02-21T01:08:48;19.63;;;4.65;;
1400;SDS011;46518;48.842;8.926;2024-02-21T01:11:16;11.75;;;5.18;;
1400;SDS011;46518;48.842;8.926;2024-02-21T01:13:45;6.03;;;4.35;;
1400;SDS011;46518;48.842;8.926;2024-02-21T01:16:13;8.98;;;5.03;;
1400;SDS011;46518;48.842;8.926;2024-02-21T01:18:42;11.32;;;6.40;;
1400;SDS011;46518;48.842;8.926;2024-02-21T01:21:11;10.15;;;4.57;;
1400;SDS011;46518;48.842;8.926;2024-02-21T01:23:39;16.13;;;6.00;;
1400;SDS011;46518;48.842;8.926;2024-02-21T01:26:07;10.07;;;5.18;;
1400;SDS011;46518;48.842;8.926;2024-02-21T01:28:35;10.10;;;6.07;;
1400;SDS011;46518;48.842;8.926;2024-02-21T01:31:04;11.18;;;5.00;;
1400;SDS011;46518;48.842;8.926;2024-02-21T01:33:32;8.77;;;4.63;;
1400;SDS011;46518;48.842;8.926;2024-02-21T01:36:03;9.52;;;5.57;;
1400;SDS011;46518;48.842;8.926;2024-02-21T01:38:33;8.43;;;5.38;;
1400;SDS011;46518;48.842;8.926;2024-02-21T01:41:02;9.93;;;4.60;;
1400;SDS011;46518;48.842;8.926;2024-02-21T01:43:30;13.20;;;5.32;;
1400;SDS011;46518;48.842;8.926;2024-02-21T01:45:58;8.70;;;4.38;;
1400;SDS011;46518;48.842;8.926;2024-02-21T01:48:27;8.73;;;4.90;;
1400;SDS011;46518;48.842;8.926;2024-02-21T01:50:55;8.02;;;4.78;;
1400;SDS011;46518;48.842;8.926;2024-02-21T01:53:27;9.23;;;4.50;;
1400;SDS011;46518;48.842;8.926;2024-02-21T01:55:58;8.43;;;5.03;;
1400;SDS011;46518;48.842;8.926;2024-02-21T01:58:26;9.18;;;4.60;;
1400;SDS011;46518;48.842;8.926;2024-02-21T02:00:57;7.68;;;4.88;;
1400;SDS011;46518;48.842;8.926;2024-02-21T02:03:25;9.52;;;4.35;;
1400;SDS011;46518;48.842;8.926;2024-02-21T02:05:53;10.50;;;4.93;;
1400;SDS011;46518;48.842;8.926;2024-02-21T02:08:22;7.30;;;4.28;;
1400;SDS011;46518;48.842;8.926;2024-02-21T02:10:51;6.75;;;4.40;;
1400;SDS011;46518;48.842;8.926;2024-02-21T02:13:20;6.28;;;4.40;;
1400;SDS011;46518;48.842;8.926;2024-02-21T02:15:48;10.77;;;5.05;;
1400;SDS011;46518;48.842;8.926;2024-02-21T02:18:17;9.43;;;4.25;;
1400;SDS011;46518;48.842;8.926;2024-02-21T02:20:47;7.90;;;4.40;;
1400;SDS011;46518;48.842;8.926;2024-02-21T02:23:24;7.03;;;4.25;;
1400;SDS011;46518;48.842;8.926;2024-02-21T02:25:52;16.85;;;6.03;;
1400;SDS011;46518;48.842;8.926;2024-02-21T02:28:20;8.60;;;4.00;;
1400;SDS011;46518;48.842;8.926;2024-02-21T02:30:49;11.98;;;5.82;;
1400;SDS011;46518;48.842;8.926;2024-02-21T02:33:18;7.82;;;5.30;;
1400;SDS011;46518;48.842;8.926;2024-02-21T02:35:46;14.27;;;6.05;;
1400;SDS011;46518;48.842;8.926;2024-02-21T02:38:15;8.93;;;5.32;;
1400;SDS011;46518;48.842;8.926;2024-02-21T02:40:44;5.60;;;4.13;;
1400;SDS011;46518;48.842;8.926;2024-02-21T02:43:13;13.90;;;5.75;;
1400;SDS011;46518;48.842;8.926;2024-02-21T02:45:41;7.13;;;5.25;;
1400;SDS011;46518;48.842;8.926;2024-02-21T02:48:09;8.57;;;5.00;;
1400;SDS011;46518;48.842;8.926;2024-02-21T02:50:37;12.20;;;6.32;;
1400;SDS011;46518;48.842;8.926;2024-02-21T02:53:05;12.65;;;5.07;;
1400;SDS011;46518;48.842;8.926;2024-02-21T02:55:34;8.18;;;6.35;;
1400;SDS011;46518;48.842;8.926;2024-02-21T02:58:04;9.00;;;4.40;;
1400;SDS011;46518;48.842;8.926;2024-02-21T03:00:32;12.35;;;5.25;;
1400;SDS011;46518;48.842;8.926;2024-02-21T03:03:03;17.60;;;5.15;;
1400;SDS011;46518;48.842;8.926;2024-02-21T03:05:31;8.90;;;4.50;;
1400;SDS011;46518;48.842;8.926;2024-02-21T03:08:00;8.65;;;4.57;;
1400;SDS011;46518;48.842;8.926;2024-02-21T03:10:28;7.97;;;4.97;;
1400;SDS011;46518;48.842;8.926;2024-02-21T03:12:56;9.18;;;4.75;;
1400;SDS011;46518;48.842;8.926;2024-02-21T03:15:25;7.30;;;4.10;;
1400;SDS011;46518;48.842;8.926;2024-02-21T03:17:53;7.78;;;4.78;;
1400;SDS011;46518;48.842;8.926;2024-02-21T03:20:21;8.70;;;4.57;;
1400;SDS011;46518;48.842;8.926;2024-02-21T03:22:49;5.32;;;3.90;;
1400;SDS011;46518;48.842;8.926;2024-02-21T03:25:18;16.98;;;4.80;;
1400;SDS011;46518;48.842;8.926;2024-02-21T03:27:46;19.70;;;5.65;;
1400;SDS011;46518;48.842;8.926;2024-02-21T03:30:14;9.13;;;3.90;;
1400;SDS011;46518;48.842;8.926;2024-02-21T03:32:44;8.75;;;5.20;;
1400;SDS011;46518;48.842;8.926;2024-02-21T03:35:12;8.43;;;3.83;;
1400;SDS011;46518;48.842;8.926;2024-02-21T03:37:40;5.85;;;4.22;;
1400;SDS011;46518;48.842;8.926;2024-02-21T03:40:09;9.32;;;3.80;;
1400;SDS011;46518;48.842;8.926;2024-02-21T03:42:38;8.00;;;4.40;;
1400;SDS011;46518;48.842;8.926;2024-02-21T03:45:06;6.97;;;4.70;;
1400;SDS011;46518;48.842;8.926;2024-02-21T03:47:35;7.47;;;4.72;;
1400;SDS011;46518;48.842;8.926;2024-02-21T03:50:05;13.57;;;5.25;;
1400;SDS011;46518;48.842;8.926;2024-02-21T03:52:34;7.88;;;4.45;;
1400;SDS011;46518;48.842;8.926;2024-02-21T03:55:02;7.97;;;5.25;;
1400;SDS011;46518;48.842;8.926;2024-02-21T03:57:30;7.18;;;4.13;;
1400;SDS011;46518;48.842;8.926;2024-02-21T03:59:58;13.88;;;4.40;;
1400;SDS011;46518;48.842;8.926;2024-02-21T04:02:26;11.73;;;5.55;;
1400;SDS011;46518;48.842;8.926;2024-02-21T04:04:54;13.63;;;5.80;;
1400;SDS011;46518;48.842;8.926;2024-02-21T04:07:24;7.07;;;4.28;;
1400;SDS011;46518;48.842;8.926;2024-02-21T04:09:52;8.55;;;5.38;;
1400;SDS011;46518;48.842;8.926;2024-02-21T04:12:21;10.18;;;5.20;;
1400;SDS011;46518;48.842;8.926;2024-02-21T04:14:49;11.05;;;4.78;;
1400;SDS011;46518;48.842;8.926;2024-02-21T04:17:17;9.07;;;4.63;;
1400;SDS011;46518;48.842;8.926;2024-02-21T04:19:45;5.85;;;4.30;;
1400;SDS011;46518;48.842;8.926;2024-02-21T04:22:14;9.13;;;4.53;;
1400;SDS011;46518;48.842;8.926;2024-02-21T04:24:44;8.38;;;5.00;;
1400;SDS011;46518;48.842;8.926;2024-02-21T04:27:12;8.63;;;4.97;;
1400;SDS011;46518;48.842;8.926;2024-02-21T04:29:40;4.57;;;3.95;;
1400;SDS011;46518;48.842;8.926;2024-02-21T04:32:08;6.95;;;3.92;;
1400;SDS011;46518;48.842;8.926;2024-02-21T04:34:36;11.20;;;6.88;;
1400;SDS011;46518;48.842;8.926;2024-02-21T04:37:05;10.80;;;5.93;;
1400;SDS011;46518;48.842;8.926;2024-02-21T04:39:33;7.22;;;4.70;;
1400;SDS011;46518;48.842;8.926;2024-02-21T04:42:03;8.93;;;4.65;;
1400;SDS011;46518;48.842;8.926;2024-02-21T04:44:31;18.25;;;5.38;;
1400;SDS011;46518;48.842;8.926;2024-02-21T04:46:59;10.40;;;4.82;;
1400;SDS011;46518;48.842;8.926;2024-02-21T04:49:27;9.38;;;5.78;;
1400;SDS011;46518;48.842;8.926;2024-02-21T04:51:57;8.82;;;4.43;;
1400;SDS011;46518;48.842;8.926;2024-02-21T04:54:25;9.18;;;4.05;;
1400;SDS011;46518;48.842;8.926;2024-02-21T04:56:53;7.22;;;3.63;;
1400;SDS011;46518;48.842;8.926;2024-02-21T04:59:23;9.10;;;4.25;;
1400;SDS011;46518;48.842;8.926;2024-02-21T05:01:51;4.22;;;3.72;;
1400;SDS011;46518;48.842;8.926;2024-02-21T05:04:20;7.30;;;5.85;;
1400;SDS011;46518;48.842;8.926;2024-02-21T05:06:48;8.82;;;4.90;;
1400;SDS011;46518;48.842;8.926;2024-02-21T05:09:16;9.57;;;3.97;;
1400;SDS011;46518;48.842;8.926;2024-02-21T05:11:44;11.25;;;4.60;;
1400;SDS011;46518;48.842;8.926;2024-02-21T05:14:12;8.10;;;4.53;;
1400;SDS011;46518;48.842;8.926;2024-02-21T05:16:41;5.10;;;3.80;;
1400;SDS011;46518;48.842;8.926;2024-02-21T05:19:10;6.63;;;4.80;;
1400;SDS011;46518;48.842;8.926;2024-02-21T05:21:38;12.18;;;4.97;;
1400;SDS011;46518;48.842;8.926;2024-02-21T05:24:06;11.80;;;4.35;;
1400;SDS011;46518;48.842;8.926;2024-02-21T05:26:34;14.75;;;5.20;;
1400;SDS011;46518;48.842;8.926;2024-02-21T05:29:02;11.10;;;4.93;;
1400;SDS011;46518;48.842;8.926;2024-02-21T05:31:42;11.07;;;4.05;;
1400;SDS011;46518;48.842;8.926;2024-02-21T05:34:22;10.85;;;4.88;;
1400;SDS011;46518;48.842;8.926;2024-02-21T05:36:52;7.93;;;4.22;;
1400;SDS011;46518;48.842;8.926;2024-02-21T05:39:20;3.63;;;3.20;;
1400;SDS011;46518;48.842;8.926;2024-02-21T05:41:49;6.47;;;4.15;;
1400;SDS011;46518;48.842;8.926;2024-02-21T05:44:19;13.85;;;4.78;;
1400;SDS011;46518;48.842;8.926;2024-02-21T05:46:50;9.90;;;4.15;;
1400;SDS011;46518;48.842;8.926;2024-02-21T05:49:18;11.45;;;4.13;;
1400;SDS011;46518;48.842;8.926;2024-02-21T05:51:46;6.70;;;3.85;;
1400;SDS011;46518;48.842;8.926;2024-02-21T05:54:14;10.55;;;4.60;;
1400;SDS011;46518;48.842;8.926;2024-02-21T05:56:44;9.50;;;5.22;;
1400;SDS011;46518;48.842;8.926;2024-02-21T05:59:13;6.57;;;4.35;;
1400;SDS011;46518;48.842;8.926;2024-02-21T06:01:41;8.38;;;4.32;;
1400;SDS011;46518;48.842;8.926;2024-02-21T06:04:11;10.90;;;5.40;;
1400;SDS011;46518;48.842;8.926;2024-02-21T06:06:39;13.68;;;5.45;;
1400;SDS011;46518;48.842;8.926;2024-02-21T06:09:08;11.02;;;5.60;;
1400;SDS011;46518;48.842;8.926;2024-02-21T06:11:36;6.22;;;4.72;;
1400;SDS011;46518;48.842;8.926;2024-02-21T06:14:07;6.93;;;4.68;;
1400;SDS011;46518;48.842;8.926;2024-02-21T06:16:35;9.77;;;4.18;;
1400;SDS011;46518;48.842;8.926;2024-02-21T06:19:03;7.13;;;4.40;;
1400;SDS011;46518;48.842;8.926;2024-02-21T06:21:36;8.25;;;4.75;;
1400;SDS011;46518;48.842;8.926;2024-02-21T06:24:05;9.93;;;5.15;;
1400;SDS011;46518;48.842;8.926;2024-02-21T06:26:33;8.20;;;3.85;;
1400;SDS011;46518;48.842;8.926;2024-02-21T06:29:01;5.25;;;4.22;;
1400;SDS011;46518;48.842;8.926;2024-02-21T06:31:29;9.77;;;5.13;;
1400;SDS011;46518;48.842;8.926;2024-02-21T06:33:58;7.50;;;3.95;;
1400;SDS011;46518;48.842;8.926;2024-02-21T06:36:27;12.82;;;4.50;;
1400;SDS011;46518;48.842;8.926;2024-02-21T06:38:56;8.15;;;4.25;;
1400;SDS011;46518;48.842;8.926;2024-02-21T06:41:24;12.13;;;4.03;;
1400;SDS011;46518;48.842;8.926;2024-02-21T06:43:52;7.10;;;3.70;;
1400;SDS011;46518;48.842;8.926;2024-02-21T06:46:24;7.30;;;4.10;;
1400;SDS011;46518;48.842;8.926;2024-02-21T06:48:53;5.72;;;3.85;;
1400;SDS011;46518;48.842;8.926;2024-02-21T06:51:23;11.50;;;4.45;;
1400;SDS011;46518;48.842;8.926;2024-02-21T06:53:52;6.95;;;3.85;;
1400;SDS011;46518;48.842;8.926;2024-02-21T06:56:23;8.75;;;4.57;;
1400;SDS011;46518;48.842;8.926;2024-02-21T06:58:55;4.72;;;3.85;;
1400;SDS011;46518;48.842;8.926;2024-02-21T07:01:23;6.82;;;3.30;;
1400;SDS011;46518;48.842;8.926;2024-02-21T07:03:52;8.38;;;3.78;;
1400;SDS011;46518;48.842;8.926;2024-02-21T07:06:20;4.70;;;3.00;;
1400;SDS011;46518;48.842;8.926;2024-02-21T07:08:48;7.30;;;3.65;;
1400;SDS011;46518;48.842;8.926;2024-02-21T07:11:16;6.40;;;3.80;;
1400;SDS011;46518;48.842;8.926;2024-02-21T07:13:46;6.78;;;4.18;;
1400;SDS011;46518;48.842;8.926;2024-02-21T07:16:14;6.65;;;3.97;;
1400;SDS011;46518;48.842;8.926;2024-02-21T07:18:42;7.57;;;3.92;;
1400;SDS011;46518;48.842;8.926;2024-02-21T07:21:10;5.03;;;3.03;;
1400;SDS011;46518;48.842;8.926;2024-02-21T07:23:40;10.30;;;4.80;;
1400;SDS011;46518;48.842;8.926;2024-02-21T07:26:08;6.55;;;3.28;;
1400;SDS011;46518;48.842;8.926;2024-02-21T07:28:37;4.45;;;2.90;;
1400;SDS011;46518;48.842;8.926;2024-02-21T07:31:06;9.02;;;3.53;;
1400;SDS011;46518;48.842;8.926;2024-02-21T07:33:34;8.00;;;3.30;;
1400;SDS011;46518;48.842;8.926;2024-02-21T07:36:05;7.53;;;3.70;;
1400;SDS011;46518;48.842;8.926;2024-02-21T07:38:33;10.30;;;3.30;;
1400;SDS011;46518;48.842;8.926;2024-02-21T07:41:02;9.13;;;3.58;;
1400;SDS011;46518;48.842;8.926;2024-02-21T07:43:30;7.05;;;3.40;;
1400;SDS011;46518;48.842;8.926;2024-02-21T07:45:59;9.30;;;3.10;;
1400;SDS011;46518;48.842;8.926;2024-02-21T07:48:28;10.13;;;3.65;;
1400;SDS011;46518;48.842;8.926;2024-02-21T07:51:00;4.15;;;3.00;;
1400;SDS011;46518;48.842;8.926;2024-02-21T07:53:29;3.20;;;2.90;;
1400;SDS011;46518;48.842;8.926;2024-02-21T07:55:57;9.13;;;3.70;;
1400;SDS011;46518;48.842;8.926;2024-02-21T07:58:25;4.55;;;3.25;;
1400;SDS011;46518;48.842;8.926;2024-02-21T08:00:53;7.63;;;3.45;;
1400;SDS011;46518;48.842;8.926;2024-02-21T08:03:21;6.60;;;3.50;;
1400;SDS011;46518;48.842;8.926;2024-02-21T08:05:53;5.63;;;3.53;;
1400;SDS011;46518;48.842;8.926;2024-02-21T08:08:22;8.75;;;3.45;;
1400;SDS011;46518;48.842;8.926;2024-02-21T08:10:50;5.57;;;3.67;;
1400;SDS011;46518;48.842;8.926;2024-02-21T08:13:18;6.10;;;2.85;;
1400;SDS011;46518;48.842;8.926;2024-02-21T08:15:47;3.03;;;2.35;;
1400;SDS011;46518;48.842;8.926;2024-02-21T08:18:15;5.47;;;4.07;;
1400;SDS011;46518;48.842;8.926;2024-02-21T08:20:43;4.88;;;3.30;;
1400;SDS011;46518;48.842;8.926;2024-02-21T08:23:15;4.82;;;3.00;;
1400;SDS011;46518;48.842;8.926;2024-02-21T08:25:44;6.40;;;3.33;;
1400;SDS011;46518;48.842;8.926;2024-02-21T08:28:12;6.30;;;4.25;;
1400;SDS011;46518;48.842;8.926;2024-02-21T08:30:41;3.00;;;2.70;;
1400;SDS011;46518;48.842;8.926;2024-02-21T08:33:15;8.30;;;3.63;;
1400;SDS011;46518;48.842;8.926;2024-02-21T08:35:44;9.75;;;3.40;;
1400;SDS011;46518;48.842;8.926;2024-02-21T08:38:13;5.35;;;3.45;;
1400;SDS011;46518;48.842;8.926;2024-02-21T08:40:41;3.50;;;2.60;;
1400;SDS011;46518;48.842;8.926;2024-02-21T08:43:09;9.25;;;3.40;;
1400;SDS011;46518;48.842;8.926;2024-02-21T08:45:37;5.05;;;3.30;;
1400;SDS011;46518;48.842;8.926;2024-02-21T08:48:06;6.00;;;3.08;;
1400;SDS011;46518;48.842;8.926;2024-02-21T08:50:35;3.60;;;2.70;;
1400;SDS011;46518;48.842;8.926;2024-02-21T08:53:03;4.32;;;2.70;;
1400;SDS011;46518;48.842;8.926;2024-02-21T08:55:33;6.85;;;4.80;;
1400;SDS011;46518;48.842;8.926;2024-02-21T08:58:02;6.25;;;3.35;;
1400;SDS011;46518;48.842;8.926;2024-02-21T09:00:31;7.55;;;2.90;;
1400;SDS011;46518;48.842;8.926;2024-02-21T09:02:59;6.57;;;3.08;;
1400;SDS011;46518;48.842;8.926;2024-02-21T09:05:27;6.82;;;3.50;;
1400;SDS011;46518;48.842;8.926;2024-02-21T09:07:56;8.88;;;4.03;;
1400;SDS011;46518;48.842;8.926;2024-02-21T09:10:24;5.40;;;2.95;;
1400;SDS011;46518;48.842;8.926;2024-02-21T09:12:53;4.43;;;3.08;;
1400;SDS011;46518;48.842;8.926;2024-02-21T09:15:22;5.93;;;3.28;;
1400;SDS011;46518;48.842;8.926;2024-02-21T09:17:50;6.75;;;3.25;;
1400;SDS011;46518;48.842;8.926;2024-02-21T09:20:19;6.88;;;4.28;;
1400;SDS011;46518;48.842;8.926;2024-02-21T09:22:47;5.05;;;2.60;;
1400;SDS011;46518;48.842;8.926;2024-02-21T09:25:15;4.38;;;3.00;;
1400;SDS011;46518;48.842;8.926;2024-02-21T09:27:43;5.15;;;2.80;;
1400;SDS011;46518;48.842;8.926;2024-02-21T09:30:13;5.28;;;2.70;;
1400;SDS011;46518;48.842;8.926;2024-02-21T09:32:42;7.47;;;3.25;;
1400;SDS011;46518;48.842;8.926;2024-02-21T09:35:10;4.85;;;3.00;;
1400;SDS011;46518;48.842;8.926;2024-02-21T09:37:39;4.05;;;2.70;;
1400;SDS011;46518;48.842;8.926;2024-02-21T09:40:08;11.98;;;3.47;;
1400;SDS011;46518;48.842;8.926;2024-02-21T09:42:37;7.30;;;3.20;;
1400;SDS011;46518;48.842;8.926;2024-02-21T09:45:07;4.75;;;2.80;;
1400;SDS011;46518;48.842;8.926;2024-02-21T09:47:48;8.95;;;3.15;;
1400;SDS011;46518;48.842;8.926;2024-02-21T09:50:23;6.20;;;2.58;;
1400;SDS011;46518;48.842;8.926;2024-02-21T09:52:54;3.17;;;2.63;;
1400;SDS011;46518;48.842;8.926;2024-02-21T09:55:22;4.88;;;4.38;;
1400;SDS011;46518;48.842;8.926;2024-02-21T09:57:51;6.95;;;2.72;;
1400;SDS011;46518;48.842;8.926;2024-02-21T10:00:20;3.15;;;2.15;;
1400;SDS011;46518;48.842;8.926;2024-02-21T10:02:50;7.57;;;3.05;;
1400;SDS011;46518;48.842;8.926;2024-02-21T10:05:19;6.20;;;2.70;;
1400;SDS011;46518;48.842;8.926;2024-02-21T10:07:47;4.53;;;2.78;;
1400;SDS011;46518;48.842;8.926;2024-02-21T10:10:17;3.22;;;2.70;;
1400;SDS011;46518;48.842;8.926;2024-02-21T10:12:48;5.75;;;2.20;;
1400;SDS011;46518;48.842;8.926;2024-02-21T10:15:19;2.45;;;2.13;;
1400;SDS011;46518;48.842;8.926;2024-02-21T10:17:57;9.02;;;2.58;;
1400;SDS011;46518;48.842;8.926;2024-02-21T10:20:26;4.30;;;2.55;;
1400;SDS011;46518;48.842;8.926;2024-02-21T10:23:00;6.82;;;2.75;;
1400;SDS011;46518;48.842;8.926;2024-02-21T10:25:29;6.22;;;2.90;;
1400;SDS011;46518;48.842;8.926;2024-02-21T10:27:57;3.10;;;2.55;;
1400;SDS011;46518;48.842;8.926;2024-02-21T10:30:25;4.55;;;2.15;;
1400;SDS011;46518;48.842;8.926;2024-02-21T10:32:54;3.85;;;2.28;;
1400;SDS011;46518;48.842;8.926;2024-02-21T10:35:26;3.38;;;2.63;;
1400;SDS011;46518;48.842;8.926;2024-02-21T10:37:56;3.40;;;2.20;;
1400;SDS011;46518;48.842;8.926;2024-02-21T10:40:24;6.88;;;2.80;;
1400;SDS011;46518;48.842;8.926;2024-02-21T10:42:55;4.43;;;2.58;;
1400;SDS011;46518;48.842;8.926;2024-02-21T10:45:28;3.88;;;2.28;;
1400;SDS011;46518;48.842;8.926;2024-02-21T10:48:06;2.67;;;2.42;;
1400;SDS011;46518;48.842;8.926;2024-02-21T10:50:42;3.70;;;2.50;;
1400;SDS011;46518;48.842;8.926;2024-02-21T10:53:24;4.03;;;1.77;;
1400;SDS011;46518;48.842;8.926;2024-02-21T10:56:06;5.85;;;2.75;;
1400;SDS011;46518;48.842;8.926;2024-02-21T10:58:43;5.03;;;2.22;;
1400;SDS011;46518;48.842;8.926;2024-02-21T11:01:13;5.95;;;2.55;;
1400;SDS011;46518;48.842;8.926;2024-02-21T11:03:44;8.32;;;3.38;;
1400;SDS011;46518;48.842;8.926;2024-02-21T11:06:14;9.20;;;2.42;;
1400;SDS011;46518;48.842;8.926;2024-02-21T11:08:44;4.90;;;2.50;;
1400;SDS011;46518;48.842;8.926;2024-02-21T11:11:12;6.32;;;2.22;;
1400;SDS011;46518;48.842;8.926;2024-02-21T11:14:04;4.95;;;3.15;;
1400;SDS011;46518;48.842;8.926;2024-02-21T11:16:36;5.90;;;2.35;;
1400;SDS011;46518;48.842;8.926;2024-02-21T11:19:08;3.72;;;2.53;;
1400;SDS011;46518;48.842;8.926;2024-02-21T11:21:38;2.85;;;2.33;;
1400;SDS011;46518;48.842;8.926;2024-02-21T11:24:08;4.80;;;1.90;;
1400;SDS011;46518;48.842;8.926;2024-02-21T11:26:37;2.55;;;2.28;;
1400;SDS011;46518;48.842;8.926;2024-02-21T11:29:05;6.38;;;2.20;;
1400;SDS011;46518;48.842;8.926;2024-02-21T11:31:39;4.20;;;1.92;;
1400;SDS011;46518;48.842;8.926;2024-02-21T11:34:10;3.38;;;2.20;;
1400;SDS011;46518;48.842;8.926;2024-02-21T11:36:48;3.40;;;2.03;;
1400;SDS011;46518;48.842;8.926;2024-02-21T11:39:18;2.70;;;2.08;;
1400;SDS011;46518;48.842;8.926;2024-02-21T11:41:48;4.50;;;2.40;;
1400;SDS011;46518;48.842;8.926;2024-02-21T11:44:31;15.18;;;2.53;;
1400;SDS011;46518;48.842;8.926;2024-02-21T11:46:59;5.50;;;2.42;;
1400;SDS011;46518;48.842;8.926;2024-02-21T11:49:29;3.80;;;2.10;;
1400;SDS011;46518;48.842;8.926;2024-02-21T11:51:58;3.42;;;1.92;;
1400;SDS011;46518;48.842;8.926;2024-02-21T11:54:31;2.70;;;1.95;;
1400;SDS011;46518;48.842;8.926;2024-02-21T11:56:59;4.20;;;2.30;;
1400;SDS011;46518;48.842;8.926;2024-02-21T11:59:34;3.85;;;2.40;;
1400;SDS011;46518;48.842;8.926;2024-02-21T12:02:02;4.40;;;2.17;;
1400;SDS011;46518;48.842;8.926;2024-02-21T12:04:33;2.10;;;1.75;;
1400;SDS011;46518;48.842;8.926;2024-02-21T12:07:02;5.53;;;2.15;;
1400;SDS011;46518;48.842;8.926;2024-02-21T12:09:31;3.42;;;3.00;;
1400;SDS011;46518;48.842;8.926;2024-02-21T12:12:00;3.22;;;2.17;;
1400;SDS011;46518;48.842;8.926;2024-02-21T12:14:30;3.30;;;1.70;;
1400;SDS011;46518;48.842;8.926;2024-02-21T12:16:59;3.08;;;2.20;;
1400;SDS011;46518;48.842;8.926;2024-02-21T12:19:30;3.13;;;2.55;;
1400;SDS011;46518;48.842;8.926;2024-02-21T12:22:01;4.57;;;2.20;;
1400;SDS011;46518;48.842;8.926;2024-02-21T12:24:33;4.25;;;2.13;;
1400;SDS011;46518;48.842;8.926;2024-02-21T12:27:02;4.15;;;1.80;;
1400;SDS011;46518;48.842;8.926;2024-02-21T12:29:32;4.30;;;2.20;;
1400;SDS011;46518;48.842;8.926;2024-02-21T12:32:00;4.50;;;1.90;;
1400;SDS011;46518;48.842;8.926;2024-02-21T12:34:30;7.75;;;2.15;;
1400;SDS011;46518;48.842;8.926;2024-02-21T12:37:18;4.13;;;2.00;;
1400;SDS011;46518;48.842;8.926;2024-02-21T12:39:47;3.38;;;1.50;;
1400;SDS011;46518;48.842;8.926;2024-02-21T12:42:15;2.33;;;1.70;;
1400;SDS011;46518;48.842;8.926;2024-02-21T12:44:44;2.63;;;1.63;;
1400;SDS011;46518;48.842;8.926;2024-02-21T12:47:12;2.63;;;2.00;;
1400;SDS011;46518;48.842;8.926;2024-02-21T12:49:42;3.05;;;1.70;;
1400;SDS011;46518;48.842;8.926;2024-02-21T12:52:12;3.42;;;1.85;;
1400;SDS011;46518;48.842;8.926;2024-02-21T12:54:41;3.10;;;1.50;;
1400;SDS011;46518;48.842;8.926;2024-02-21T12:57:09;2.58;;;1.80;;
1400;SDS011;46518;48.842;8.926;2024-02-21T12:59:37;1.67;;;1.42;;
1400;SDS011;46518;48.842;8.926;2024-02-21T13:02:05;2.95;;;1.80;;
1400;SDS011;46518;48.842;8.926;2024-02-21T13:04:35;2.97;;;1.70;;
1400;SDS011;46518;48.842;8.926;2024-02-21T13:07:09;2.58;;;1.48;;
1400;SDS011;46518;48.842;8.926;2024-02-21T13:09:37;4.65;;;1.65;;
1400;SDS011;46518;48.842;8.926;2024-02-21T13:12:05;2.08;;;1.30;;
1400;SDS011;46518;48.842;8.926;2024-02-21T13:14:33;3.10;;;1.48;;
1400;SDS011;46518;48.842;8.926;2024-02-21T13:17:05;4.10;;;1.60;;
1400;SDS011;46518;48.842;8.926;2024-02-21T13:19:34;2.75;;;1.23;;
1400;SDS011;46518;48.842;8.926;2024-02-21T13:22:02;2.08;;;1.73;;
1400;SDS011;46518;48.842;8.926;2024-02-21T13:24:32;1.67;;;1.20;;
1400;SDS011;46518;48.842;8.926;2024-02-21T13:27:00;2.00;;;1.10;;
1400;SDS011;46518;48.842;8.926;2024-02-21T13:29:30;0.90;;;0.80;;
1400;SDS011;46518;48.842;8.926;2024-02-21T13:31:58;2.65;;;1.13;;
1400;SDS011;46518;48.842;8.926;2024-02-21T13:34:26;3.90;;;1.23;;
1400;SDS011;46518;48.842;8.926;2024-02-21T13:36:55;2.08;;;1.20;;
1400;SDS011;46518;48.842;8.926;2024-02-21T13:39:23;1.40;;;1.00;;
1400;SDS011;46518;48.842;8.926;2024-02-21T13:41:53;1.50;;;1.02;;
1400;SDS011;46518;48.842;8.926;2024-02-21T13:44:21;1.83;;;1.02;;
1400;SDS011;46518;48.842;8.926;2024-02-21T13:46:49;2.30;;;1.40;;
1400;SDS011;46518;48.842;8.926;2024-02-21T13:49:17;1.30;;;1.20;;
1400;SDS011;46518;48.842;8.926;2024-02-21T13:51:45;1.20;;;0.70;;
1400;SDS011;46518;48.842;8.926;2024-02-21T13:54:13;1.95;;;1.35;;
1400;SDS011;46518;48.842;8.926;2024-02-21T13:56:43;3.05;;;1.30;;
1400;SDS011;46518;48.842;8.926;2024-02-21T13:59:13;4.50;;;2.33;;
1400;SDS011;46518;48.842;8.926;2024-02-21T14:01:41;4.55;;;2.15;;
1400;SDS011;46518;48.842;8.926;2024-02-21T14:04:09;4.03;;;2.38;;
1400;SDS011;46518;48.842;8.926;2024-02-21T14:06:38;7.72;;;3.45;;
1400;SDS011;46518;48.842;8.926;2024-02-21T14:09:10;3.97;;;2.50;;
1400;SDS011;46518;48.842;8.926;2024-02-21T14:11:38;2.80;;;2.08;;
1400;SDS011;46518;48.842;8.926;2024-02-21T14:14:09;5.47;;;1.85;;
1400;SDS011;46518;48.842;8.926;2024-02-21T14:16:38;6.07;;;2.33;;
1400;SDS011;46518;48.842;8.926;2024-02-21T14:19:06;3.40;;;2.75;;
1400;SDS011;46518;48.842;8.926;2024-02-21T14:21:36;2.58;;;2.00;;
1400;SDS011;46518;48.842;8.926;2024-02-21T14:24:04;2.42;;;2.05;;
1400;SDS011;46518;48.842;8.926;2024-02-21T14:26:33;5.30;;;2.13;;
1400;SDS011;46518;48.842;8.926;2024-02-21T14:29:02;4.63;;;2.50;;
1400;SDS011;46518;48.842;8.926;2024-02-21T14:31:31;2.30;;;1.98;;
1400;SDS011;46518;48.842;8.926;2024-02-21T14:34:01;6.13;;;2.28;;
1400;SDS011;46518;48.842;8.926;2024-02-21T14:36:30;8.52;;;3.00;;
1400;SDS011;46518;48.842;8.926;2024-02-21T14:38:58;5.30;;;3.38;;
1400;SDS011;46518;48.842;8.926;2024-02-21T14:41:27;6.45;;;3.10;;
1400;SDS011;46518;48.842;8.926;2024-02-21T14:43:56;3.53;;;2.50;;
1400;SDS011;46518;48.842;8.926;2024-02-21T14:46:30;4.93;;;2.80;;
1400;SDS011;46518;48.842;8.926;2024-02-21T14:48:58;3.17;;;2.47;;
1400;SDS011;46518;48.842;8.926;2024-02-21T14:51:27;3.40;;;2.28;;
1400;SDS011;46518;48.842;8.926;2024-02-21T14:53:57;4.28;;;2.40;;
1400;SDS011;46518;48.842;8.926;2024-02-21T14:56:25;2.50;;;2.30;;
1400;SDS011;46518;48.842;8.926;2024-02-21T14:58:53;3.42;;;2.40;;
1400;SDS011;46518;48.842;8.926;2024-02-21T15:01:26;6.60;;;3.63;;
1400;SDS011;46518;48.842;8.926;2024-02-21T15:03:57;2.63;;;2.40;;
1400;SDS011;46518;48.842;8.926;2024-02-21T15:06:25;3.25;;;2.95;;
1400;SDS011;46518;48.842;8.926;2024-02-21T15:08:55;3.40;;;2.75;;
1400;SDS011;46518;48.842;8.926;2024-02-21T15:11:23;5.68;;;2.70;;
1400;SDS011;46518;48.842;8.926;2024-02-21T15:13:52;5.43;;;2.70;;